createdAt,value
2023-02-16T00:00:23.617Z,18.70
2023-02-16T00:01:24.946Z,16.70
2023-02-16T00:02:25.332Z,17.60
2023-02-16T00:03:26.960Z,17.60
2023-02-16T00:04:26.794Z,17.10
2023-02-16T00:05:27.627Z,18.20
2023-02-16T00:06:28.483Z,18.20
2023-02-16T00:07:29.334Z,17.60
2023-02-16T00:08:30.203Z,17.00
2023-02-16T00:09:31.074Z,18.00
2023-02-16T00:10:31.923Z,17.10
2023-02-16T00:11:32.791Z,17.30
2023-02-16T00:12:33.641Z,17.90
2023-02-16T00:13:34.526Z,17.60
2023-02-16T00:14:35.360Z,17.70
2023-02-16T00:15:36.264Z,17.70
2023-02-16T00:16:37.121Z,16.50
2023-02-16T00:17:37.978Z,17.50
2023-02-16T00:18:38.848Z,17.60
2023-02-16T00:19:39.639Z,17.50
2023-02-16T00:20:40.474Z,16.90
2023-02-16T00:21:41.432Z,17.30
2023-02-16T00:22:42.302Z,17.20
2023-02-16T00:23:43.160Z,17.30
2023-02-16T00:24:44.006Z,17.90
2023-02-16T00:25:44.860Z,18.10
2023-02-16T00:26:45.721Z,17.10
2023-02-16T00:27:46.578Z,17.10
2023-02-16T00:28:47.454Z,17.50
2023-02-16T00:29:48.287Z,17.60
2023-02-16T00:30:49.195Z,16.70
2023-02-16T00:31:50.624Z,17.80
2023-02-16T00:32:50.551Z,18.20
2023-02-16T00:33:51.534Z,17.80
2023-02-16T00:34:52.342Z,17.00
2023-02-16T00:35:53.188Z,18.20
2023-02-16T00:36:54.059Z,17.00
2023-02-16T00:37:54.912Z,17.90
2023-02-16T00:38:55.774Z,17.10
2023-02-16T00:39:56.612Z,17.10
2023-02-16T00:40:57.467Z,18.10
2023-02-16T00:41:58.333Z,16.80
2023-02-16T00:42:59.213Z,17.70
2023-02-16T00:44:00.152Z,16.80
2023-02-16T00:45:00.929Z,16.90
2023-02-16T00:46:01.846Z,17.30
2023-02-16T00:47:02.683Z,16.80
2023-02-16T00:48:03.528Z,17.20
2023-02-16T00:49:04.516Z,17.40
2023-02-16T00:50:05.296Z,17.30
2023-02-16T00:51:20.265Z,17.20
2023-02-16T00:52:07.903Z,17.00
2023-02-16T00:53:07.792Z,17.40
2023-02-16T00:54:08.645Z,17.20
2023-02-16T00:55:09.494Z,17.10
2023-02-16T00:56:10.349Z,17.70
2023-02-16T00:57:11.434Z,18.00
2023-02-16T00:58:11.800Z,17.50
2023-02-16T00:59:12.662Z,17.50
2023-02-16T01:00:13.496Z,17.20
2023-02-16T01:01:14.402Z,17.90
2023-02-16T01:02:15.439Z,17.00
2023-02-16T01:03:15.789Z,17.30
2023-02-16T01:04:16.653Z,17.00
2023-02-16T01:05:17.431Z,18.00
2023-02-16T01:06:18.284Z,17.10
2023-02-16T01:07:19.436Z,16.60
2023-02-16T01:08:19.788Z,17.80
2023-02-16T01:09:20.642Z,16.70
2023-02-16T01:10:21.502Z,17.70
2023-02-16T01:11:22.349Z,16.90
2023-02-16T01:12:23.436Z,17.10
2023-02-16T01:13:23.781Z,18.00
2023-02-16T01:14:24.654Z,17.70
2023-02-16T01:15:25.494Z,17.30
2023-02-16T01:16:26.369Z,17.60
2023-02-16T01:17:27.242Z,17.60
2023-02-16T01:18:28.102Z,17.50
2023-02-16T01:19:29.061Z,17.70
2023-02-16T01:20:29.839Z,17.20
2023-02-16T01:21:30.705Z,18.10
2023-02-16T01:22:31.927Z,17.20
2023-02-16T01:23:32.278Z,16.70
2023-02-16T01:24:33.130Z,16.50
2023-02-16T01:25:33.982Z,18.00
2023-02-16T01:26:34.836Z,17.70
2023-02-16T01:27:35.929Z,17.70
2023-02-16T01:28:36.280Z,17.70
2023-02-16T01:29:37.279Z,17.10
2023-02-16T01:30:38.050Z,17.90
2023-02-16T01:31:39.020Z,18.40
2023-02-16T01:32:39.950Z,17.60
2023-02-16T01:33:40.803Z,17.90
2023-02-16T01:34:41.661Z,17.10
2023-02-16T01:35:42.501Z,16.90
2023-02-16T01:36:43.350Z,16.80
2023-02-16T01:37:44.424Z,17.30
2023-02-16T01:38:44.779Z,17.50
2023-02-16T01:39:45.640Z,17.60
2023-02-16T01:40:46.547Z,16.80
2023-02-16T01:41:47.403Z,17.20
2023-02-16T01:42:48.424Z,17.30
2023-02-16T01:43:48.777Z,17.40
2023-02-16T01:44:49.659Z,17.30
2023-02-16T01:45:50.477Z,18.20
2023-02-16T01:46:51.448Z,17.10
2023-02-16T01:47:52.305Z,18.30
2023-02-16T01:48:53.153Z,17.40
2023-02-16T01:49:54.026Z,17.20
2023-02-16T01:50:54.815Z,16.70
2023-02-16T01:51:55.671Z,16.80
2023-02-16T01:52:56.544Z,18.00
2023-02-16T01:53:57.381Z,17.50
2023-02-16T01:54:58.234Z,17.00
2023-02-16T01:55:59.086Z,18.90
2023-02-16T01:56:59.938Z,16.80
2023-02-16T01:58:00.800Z,17.30
2023-02-16T01:59:01.658Z,18.10
2023-02-16T02:00:02.528Z,17.40
2023-02-16T02:01:03.676Z,17.50
2023-02-16T02:02:04.207Z,16.50
2023-02-16T02:03:05.573Z,17.70
2023-02-16T02:04:05.877Z,17.20
2023-02-16T02:05:06.890Z,17.50
2023-02-16T02:06:07.695Z,17.50
2023-02-16T02:07:08.539Z,17.30
2023-02-16T02:08:09.428Z,17.40
2023-02-16T02:09:10.255Z,17.30
2023-02-16T02:10:11.102Z,17.50
2023-02-16T02:11:12.015Z,17.70
2023-02-16T02:12:12.864Z,17.90
2023-02-16T02:13:13.725Z,16.60
2023-02-16T02:14:14.575Z,18.20
2023-02-16T02:15:15.505Z,17.10
2023-02-16T02:16:16.334Z,17.60
2023-02-16T02:17:17.177Z,16.80
2023-02-16T02:18:18.039Z,17.50
2023-02-16T02:19:18.890Z,16.70
2023-02-16T02:20:19.771Z,17.50
2023-02-16T02:21:20.683Z,16.90
2023-02-16T02:22:21.535Z,17.80
2023-02-16T02:23:22.922Z,17.30
2023-02-16T02:24:23.276Z,17.40
2023-02-16T02:25:24.128Z,17.90
2023-02-16T02:26:24.978Z,18.10
2023-02-16T02:27:25.840Z,17.70
2023-02-16T02:28:26.691Z,17.40
2023-02-16T02:29:27.551Z,17.40
2023-02-16T02:30:28.502Z,16.80
2023-02-16T02:31:29.518Z,18.50
2023-02-16T02:32:29.855Z,16.40
2023-02-16T02:33:30.732Z,16.80
2023-02-16T02:34:31.580Z,17.70
2023-02-16T02:35:32.556Z,17.80
2023-02-16T02:36:33.343Z,17.70
2023-02-16T02:37:34.202Z,16.50
2023-02-16T02:38:35.067Z,17.40
2023-02-16T02:39:35.914Z,16.70
2023-02-16T02:40:36.765Z,17.60
2023-02-16T02:41:37.618Z,17.30
2023-02-16T02:42:38.470Z,18.60
2023-02-16T02:43:39.329Z,16.30
2023-02-16T02:44:40.199Z,17.10
2023-02-16T02:45:41.057Z,17.10
2023-02-16T02:46:41.956Z,17.30
2023-02-16T02:47:42.809Z,17.40
2023-02-16T02:48:43.646Z,16.80
2023-02-16T02:49:44.499Z,17.00
2023-02-16T02:50:45.458Z,17.30
2023-02-16T02:51:46.239Z,17.50
2023-02-16T02:52:47.097Z,16.80
2023-02-16T02:53:47.953Z,17.30
2023-02-16T02:54:48.811Z,16.60
2023-02-16T02:55:49.659Z,17.70
2023-02-16T02:56:50.508Z,17.00
2023-02-16T02:57:51.368Z,16.90
2023-02-16T02:58:52.433Z,16.90
2023-02-16T02:59:52.793Z,16.30
2023-02-16T03:00:53.712Z,16.70
2023-02-16T03:01:54.559Z,16.60
2023-02-16T03:02:55.381Z,16.60
2023-02-16T03:03:56.427Z,17.10
2023-02-16T03:04:56.804Z,16.70
2023-02-16T03:05:57.760Z,17.30
2023-02-16T03:06:58.546Z,16.60
2023-02-16T03:07:59.394Z,16.90
2023-02-16T03:09:00.263Z,16.50
2023-02-16T03:10:01.113Z,17.40
2023-02-16T03:11:02.201Z,17.60
2023-02-16T03:12:02.569Z,16.60
2023-02-16T03:13:03.437Z,17.40
2023-02-16T03:14:04.415Z,17.20
2023-02-16T03:15:04.769Z,17.00
2023-02-16T03:16:05.752Z,17.20
2023-02-16T03:17:06.544Z,17.10
2023-02-16T03:18:07.397Z,16.40
2023-02-16T03:19:08.267Z,17.10
2023-02-16T03:20:09.118Z,17.00
2023-02-16T03:21:10.086Z,16.80
2023-02-16T03:22:10.872Z,16.70
2023-02-16T03:23:11.719Z,17.10
2023-02-16T03:24:12.581Z,17.10
2023-02-16T03:25:13.436Z,17.10
2023-02-16T03:26:14.285Z,16.30
2023-02-16T03:27:15.144Z,16.70
2023-02-16T03:28:15.995Z,16.60
2023-02-16T03:29:16.860Z,16.70
2023-02-16T03:30:17.792Z,16.30
2023-02-16T03:31:18.778Z,16.90
2023-02-16T03:32:19.171Z,17.70
2023-02-16T03:33:20.033Z,16.60
2023-02-16T03:34:20.920Z,16.70
2023-02-16T03:35:21.782Z,16.50
2023-02-16T03:36:22.740Z,16.40
2023-02-16T03:37:23.511Z,16.60
2023-02-16T03:38:24.368Z,17.00
2023-02-16T03:39:25.410Z,16.70
2023-02-16T03:40:25.772Z,17.60
2023-02-16T03:41:26.627Z,15.80
2023-02-16T03:42:27.481Z,16.80
2023-02-16T03:43:28.338Z,16.30
2023-02-16T03:44:29.202Z,16.50
2023-02-16T03:45:30.102Z,17.10
2023-02-16T03:46:31.093Z,17.00
2023-02-16T03:47:31.875Z,16.60
2023-02-16T03:48:32.738Z,17.40
2023-02-16T03:49:33.913Z,16.70
2023-02-16T03:50:34.264Z,17.10
2023-02-16T03:51:35.248Z,16.50
2023-02-16T03:52:36.028Z,16.60
2023-02-16T03:53:36.889Z,16.60
2023-02-16T03:54:37.904Z,17.00
2023-02-16T03:55:38.263Z,17.40
2023-02-16T03:56:39.127Z,17.80
2023-02-16T03:57:39.989Z,17.20
2023-02-16T03:58:40.846Z,17.10
2023-02-16T03:59:41.705Z,17.90
2023-02-16T04:00:42.568Z,16.80
2023-02-16T04:01:43.502Z,17.50
2023-02-16T04:02:44.298Z,17.30
2023-02-16T04:03:45.161Z,17.60
2023-02-16T04:04:46.025Z,16.50
2023-02-16T04:05:46.908Z,16.80
2023-02-16T04:06:47.778Z,16.50
2023-02-16T04:07:48.567Z,17.20
2023-02-16T04:08:49.415Z,16.50
2023-02-16T04:09:50.286Z,17.60
2023-02-16T04:10:51.132Z,16.70
2023-02-16T04:11:51.984Z,16.10
2023-02-16T04:12:52.841Z,17.80
2023-02-16T04:13:53.719Z,17.50
2023-02-16T04:14:54.577Z,16.60
2023-02-16T04:15:55.431Z,16.50
2023-02-16T04:16:56.307Z,17.10
2023-02-16T04:17:57.148Z,17.40
2023-02-16T04:18:57.997Z,16.70
2023-02-16T04:19:58.864Z,17.90
2023-02-16T04:20:59.717Z,16.40
2023-02-16T04:22:00.681Z,17.40
2023-02-16T04:23:01.462Z,17.10
2023-02-16T04:24:02.354Z,17.70
2023-02-16T04:25:03.217Z,16.60
2023-02-16T04:26:04.074Z,16.90
2023-02-16T04:27:04.932Z,17.00
2023-02-16T04:28:05.783Z,17.60
2023-02-16T04:29:06.644Z,16.70
2023-02-16T04:30:07.956Z,17.30
2023-02-16T04:31:08.608Z,17.50
2023-02-16T04:32:09.146Z,17.40
2023-02-16T04:33:09.507Z,18.00
2023-02-16T04:34:10.368Z,17.40
2023-02-16T04:35:11.241Z,17.00
2023-02-16T04:36:12.094Z,18.30
2023-02-16T04:37:13.061Z,18.40
2023-02-16T04:38:13.839Z,17.90
2023-02-16T04:39:14.692Z,17.60
2023-02-16T04:40:15.563Z,17.50
2023-02-16T04:41:16.412Z,17.00
2023-02-16T04:42:17.269Z,17.00
2023-02-16T04:43:18.120Z,17.70
2023-02-16T04:44:18.972Z,17.50
2023-02-16T04:45:19.836Z,17.40
2023-02-16T04:46:20.705Z,16.80
2023-02-16T04:47:21.568Z,17.70
2023-02-16T04:48:22.415Z,17.80
2023-02-16T04:49:23.275Z,17.00
2023-02-16T04:50:24.132Z,17.70
2023-02-16T04:51:24.998Z,16.60
2023-02-16T04:52:25.962Z,16.60
2023-02-16T04:53:26.737Z,17.90
2023-02-16T04:54:27.588Z,17.80
2023-02-16T04:55:28.451Z,17.40
2023-02-16T04:56:29.301Z,17.80
2023-02-16T04:57:30.155Z,18.30
2023-02-16T04:58:31.014Z,17.90
2023-02-16T04:59:31.867Z,18.60
2023-02-16T05:00:34.545Z,17.30
2023-02-16T05:01:33.509Z,16.90
2023-02-16T05:02:34.383Z,18.20
2023-02-16T05:03:35.216Z,17.30
2023-02-16T05:04:36.113Z,17.30
2023-02-16T05:05:36.952Z,17.00
2023-02-16T05:06:37.820Z,17.30
2023-02-16T05:07:38.784Z,16.80
2023-02-16T05:08:39.563Z,17.50
2023-02-16T05:09:40.415Z,17.80
2023-02-16T05:10:41.288Z,17.10
2023-02-16T05:11:42.131Z,17.70
2023-02-16T05:12:42.985Z,18.10
2023-02-16T05:13:43.864Z,18.80
2023-02-16T05:14:44.725Z,18.60
2023-02-16T05:15:45.899Z,17.70
2023-02-16T05:16:46.246Z,17.80
2023-02-16T05:17:47.120Z,18.40
2023-02-16T05:18:47.947Z,17.60
2023-02-16T05:19:48.799Z,17.80
2023-02-16T05:20:49.667Z,17.10
2023-02-16T05:21:50.523Z,18.50
2023-02-16T05:22:51.493Z,18.10
2023-02-16T05:23:52.270Z,18.80
2023-02-16T05:24:53.126Z,18.40
2023-02-16T05:25:53.986Z,18.00
2023-02-16T05:26:54.850Z,17.90
2023-02-16T05:27:55.744Z,17.30
2023-02-16T05:28:56.557Z,16.80
2023-02-16T05:29:57.436Z,18.30
2023-02-16T05:30:58.342Z,17.70
2023-02-16T05:31:59.257Z,18.30
2023-02-16T05:33:00.111Z,18.40
2023-02-16T05:34:00.932Z,18.50
2023-02-16T05:35:01.815Z,18.80
2023-02-16T05:36:02.665Z,19.10
2023-02-16T05:37:03.522Z,17.90
2023-02-16T05:38:04.385Z,18.10
2023-02-16T05:39:05.229Z,17.80
2023-02-16T05:40:06.088Z,18.50
2023-02-16T05:41:07.391Z,18.50
2023-02-16T05:42:07.750Z,18.80
2023-02-16T05:43:08.612Z,18.10
2023-02-16T05:44:09.496Z,18.00
2023-02-16T05:45:10.348Z,17.70
2023-02-16T05:46:11.507Z,18.40
2023-02-16T05:47:11.808Z,18.30
2023-02-16T05:48:12.731Z,18.40
2023-02-16T05:49:13.520Z,18.10
2023-02-16T05:50:14.391Z,18.60
2023-02-16T05:51:15.404Z,17.90
2023-02-16T05:52:15.759Z,18.00
2023-02-16T05:53:16.720Z,18.40
2023-02-16T05:54:17.536Z,18.20
2023-02-16T05:55:18.350Z,18.50
2023-02-16T05:56:19.304Z,17.90
2023-02-16T05:57:20.160Z,19.60
2023-02-16T05:58:21.028Z,18.70
2023-02-16T05:59:21.890Z,18.40
2023-02-16T06:00:22.732Z,19.00
2023-02-16T06:01:23.614Z,19.00
2023-02-16T06:02:24.490Z,18.40
2023-02-16T06:03:25.425Z,17.70
2023-02-16T06:04:26.221Z,19.20
2023-02-16T06:05:27.070Z,18.90
2023-02-16T06:06:28.395Z,17.40
2023-02-16T06:07:28.748Z,18.10
2023-02-16T06:08:29.712Z,18.90
2023-02-16T06:09:30.491Z,18.50
2023-02-16T06:10:31.354Z,18.90
2023-02-16T06:11:32.395Z,17.70
2023-02-16T06:12:32.746Z,19.10
2023-02-16T06:13:33.600Z,18.20
2023-02-16T06:14:34.458Z,19.30
2023-02-16T06:15:35.310Z,18.40
2023-02-16T06:16:36.404Z,18.30
2023-02-16T06:17:36.746Z,18.00
2023-02-16T06:18:37.633Z,18.80
2023-02-16T06:19:38.483Z,18.40
2023-02-16T06:20:39.338Z,18.50
2023-02-16T06:21:40.205Z,19.50
2023-02-16T06:22:41.056Z,18.00
2023-02-16T06:23:41.969Z,18.60
2023-02-16T06:24:42.741Z,18.40
2023-02-16T06:25:43.600Z,18.00
2023-02-16T06:26:44.893Z,18.90
2023-02-16T06:27:45.246Z,18.10
2023-02-16T06:28:46.097Z,18.50
2023-02-16T06:29:46.951Z,17.90
2023-02-16T06:30:47.801Z,18.80
2023-02-16T06:31:48.995Z,18.40
2023-02-16T06:32:49.399Z,18.40
2023-02-16T06:33:50.249Z,18.10
2023-02-16T06:34:51.093Z,18.50
2023-02-16T06:35:51.946Z,18.90
2023-02-16T06:36:52.906Z,18.70
2023-02-16T06:37:53.758Z,18.20
2023-02-16T06:38:54.732Z,17.80
2023-02-16T06:39:55.503Z,17.50
2023-02-16T06:40:56.359Z,18.30
2023-02-16T06:41:57.219Z,18.80
2023-02-16T06:42:58.088Z,18.10
2023-02-16T06:43:58.937Z,19.20
2023-02-16T06:44:59.789Z,17.30
2023-02-16T06:46:00.646Z,19.80
2023-02-16T06:47:01.509Z,18.40
2023-02-16T06:48:02.371Z,18.00
2023-02-16T06:49:03.239Z,17.90
2023-02-16T06:50:04.088Z,18.30
2023-02-16T06:51:05.319Z,18.40
2023-02-16T06:52:05.848Z,17.90
2023-02-16T06:53:06.691Z,18.40
2023-02-16T06:54:07.662Z,17.90
2023-02-16T06:55:08.456Z,17.80
2023-02-16T06:56:09.310Z,18.70
2023-02-16T06:57:10.167Z,17.90
2023-02-16T06:58:11.021Z,17.60
2023-02-16T06:59:11.875Z,18.90
2023-02-16T07:00:12.799Z,17.90
2023-02-16T07:01:13.700Z,18.00
2023-02-16T07:02:14.569Z,18.50
2023-02-16T07:03:15.436Z,17.60
2023-02-16T07:04:16.396Z,17.90
2023-02-16T07:05:17.187Z,17.10
2023-02-16T07:06:18.045Z,17.80
2023-02-16T07:07:19.385Z,17.40
2023-02-16T07:08:19.748Z,17.80
2023-02-16T07:09:20.712Z,17.60
2023-02-16T07:10:21.489Z,17.90
2023-02-16T07:11:22.335Z,17.30
2023-02-16T07:12:23.387Z,19.10
2023-02-16T07:13:23.741Z,18.30
2023-02-16T07:14:24.589Z,17.70
2023-02-16T07:15:25.442Z,18.70
2023-02-16T07:16:26.377Z,17.50
2023-02-16T07:17:27.192Z,17.40
2023-02-16T07:18:28.045Z,18.10
2023-02-16T07:19:28.922Z,17.80
2023-02-16T07:20:29.764Z,18.40
2023-02-16T07:21:30.620Z,17.70
2023-02-16T07:22:31.483Z,18.40
2023-02-16T07:23:32.339Z,17.00
2023-02-16T07:24:33.324Z,17.50
2023-02-16T07:25:36.045Z,18.50
2023-02-16T07:26:34.789Z,16.70
2023-02-16T07:27:35.881Z,17.80
2023-02-16T07:28:36.246Z,17.60
2023-02-16T07:29:37.088Z,16.80
2023-02-16T07:30:38.037Z,16.70
2023-02-16T07:31:38.985Z,17.90
2023-02-16T07:32:39.883Z,16.40
2023-02-16T07:33:40.288Z,17.60
2023-02-16T07:34:41.119Z,17.30
2023-02-16T07:35:41.949Z,17.20
2023-02-16T07:36:42.807Z,17.30
2023-02-16T07:37:43.890Z,16.90
2023-02-16T07:38:44.327Z,17.90
2023-02-16T07:39:45.124Z,16.40
2023-02-16T07:40:45.899Z,17.60
2023-02-16T07:41:46.764Z,16.50
2023-02-16T07:42:48.008Z,16.70
2023-02-16T07:43:48.291Z,16.70
2023-02-16T07:44:49.143Z,17.10
2023-02-16T07:45:50.017Z,16.90
2023-02-16T07:46:50.849Z,16.90
2023-02-16T07:47:51.887Z,17.70
2023-02-16T07:48:52.238Z,16.70
2023-02-16T07:49:53.121Z,16.90
2023-02-16T07:50:53.956Z,17.40
2023-02-16T07:51:54.933Z,16.30
2023-02-16T07:52:55.789Z,16.90
2023-02-16T07:53:56.638Z,16.10
2023-02-16T07:54:57.608Z,16.50
2023-02-16T07:55:58.388Z,17.30
2023-02-16T07:56:59.238Z,16.70
2023-02-16T07:58:00.377Z,16.40
2023-02-16T07:59:00.746Z,16.90
2023-02-16T08:00:01.599Z,17.10
2023-02-16T08:01:02.947Z,16.30
2023-02-16T08:02:03.550Z,17.10
2023-02-16T08:03:04.480Z,17.50
2023-02-16T08:04:04.866Z,17.10
2023-02-16T08:05:05.794Z,17.00
2023-02-16T08:06:06.580Z,17.40
2023-02-16T08:07:07.436Z,17.50
2023-02-16T08:08:08.311Z,16.80
2023-02-16T08:09:09.154Z,16.20
2023-02-16T08:10:10.154Z,16.80
2023-02-16T08:11:10.959Z,16.40
2023-02-16T08:12:11.819Z,15.40
2023-02-16T08:13:12.677Z,16.50
2023-02-16T08:14:13.529Z,16.70
2023-02-16T08:15:14.386Z,16.80
2023-02-16T08:16:15.327Z,16.70
2023-02-16T08:17:16.135Z,16.30
2023-02-16T08:18:16.998Z,16.40
2023-02-16T08:19:17.853Z,16.50
2023-02-16T08:20:18.731Z,16.60
2023-02-16T08:21:19.571Z,16.50
2023-02-16T08:22:20.426Z,16.10
2023-02-16T08:23:21.287Z,15.60
2023-02-16T08:24:22.152Z,16.50
2023-02-16T08:25:23.114Z,16.30
2023-02-16T08:26:23.891Z,15.30
2023-02-16T08:27:24.746Z,15.70
2023-02-16T08:28:25.604Z,15.50
2023-02-16T08:29:26.458Z,15.40
2023-02-16T08:30:27.352Z,16.20
2023-02-16T08:31:28.307Z,16.00
2023-02-16T08:32:28.714Z,14.90
2023-02-16T08:33:29.877Z,15.10
2023-02-16T08:34:30.233Z,15.00
2023-02-16T08:35:31.149Z,16.20
2023-02-16T08:36:31.944Z,14.80
2023-02-16T08:37:32.797Z,15.00
2023-02-16T08:38:33.676Z,15.70
2023-02-16T08:39:34.550Z,14.80
2023-02-16T08:40:35.493Z,16.00
2023-02-16T08:41:36.273Z,14.70
2023-02-16T08:42:37.144Z,15.70
2023-02-16T08:43:38.006Z,14.60
2023-02-16T08:44:38.881Z,15.50
2023-02-16T08:45:39.800Z,15.30
2023-02-16T08:46:40.677Z,14.40
2023-02-16T08:47:41.566Z,16.00
2023-02-16T08:48:42.414Z,14.70
2023-02-16T08:49:43.269Z,15.10
2023-02-16T08:50:44.196Z,15.10
2023-02-16T08:51:44.982Z,15.10
2023-02-16T08:52:45.849Z,15.00
2023-02-16T08:53:46.867Z,15.20
2023-02-16T08:54:47.229Z,15.20
2023-02-16T08:55:48.199Z,14.50
2023-02-16T08:56:49.015Z,14.70
2023-02-16T08:57:49.832Z,15.40
2023-02-16T08:58:50.881Z,15.70
2023-02-16T08:59:51.222Z,15.60
2023-02-16T09:00:52.117Z,15.00
2023-02-16T09:01:52.941Z,15.40
2023-02-16T09:02:53.799Z,14.90
2023-02-16T09:03:54.663Z,16.00
2023-02-16T09:04:55.885Z,14.90
2023-02-16T09:05:56.281Z,15.30
2023-02-16T09:06:57.112Z,14.90
2023-02-16T09:07:58.013Z,15.40
2023-02-16T09:08:58.878Z,15.50
2023-02-16T09:09:59.753Z,15.80
2023-02-16T09:11:00.729Z,15.50
2023-02-16T09:12:01.500Z,14.60
2023-02-16T09:13:02.356Z,15.60
2023-02-16T09:14:03.218Z,15.40
2023-02-16T09:15:04.078Z,15.40
2023-02-16T09:16:05.300Z,15.60
2023-02-16T09:17:05.792Z,15.20
2023-02-16T09:18:06.592Z,15.60
2023-02-16T09:19:07.452Z,15.40
2023-02-16T09:20:08.306Z,15.60
2023-02-16T09:21:09.181Z,15.10
2023-02-16T09:22:10.013Z,15.20
2023-02-16T09:23:10.879Z,15.00
2023-02-16T09:24:11.731Z,15.80
2023-02-16T09:25:12.595Z,15.10
2023-02-16T09:26:13.473Z,15.80
2023-02-16T09:27:14.253Z,15.00
2023-02-16T09:28:15.107Z,14.60
2023-02-16T09:29:15.970Z,15.00
2023-02-16T09:30:16.887Z,15.40
2023-02-16T09:31:17.807Z,14.90
2023-02-16T09:32:18.621Z,15.20
2023-02-16T09:33:19.471Z,14.50
2023-02-16T09:34:20.344Z,15.20
2023-02-16T09:35:21.182Z,14.00
2023-02-16T09:36:22.089Z,15.10
2023-02-16T09:37:22.931Z,15.40
2023-02-16T09:38:23.803Z,15.20
2023-02-16T09:39:24.685Z,14.90
2023-02-16T09:40:25.541Z,14.70
2023-02-16T09:41:26.456Z,15.00
2023-02-16T09:42:27.246Z,14.80
2023-02-16T09:43:28.107Z,14.70
2023-02-16T09:44:29.363Z,14.20
2023-02-16T09:45:29.716Z,14.60
2023-02-16T09:46:30.673Z,15.00
2023-02-16T09:47:31.284Z,15.50
2023-02-16T09:48:31.675Z,14.60
2023-02-16T09:49:32.549Z,14.80
2023-02-16T09:50:52.692Z,14.60
2023-02-16T09:51:35.208Z,14.40
2023-02-16T09:52:35.011Z,14.30
2023-02-16T09:53:35.862Z,14.60
2023-02-16T09:54:36.869Z,13.60
2023-02-16T09:55:37.234Z,13.50
2023-02-16T09:56:38.114Z,14.50
2023-02-16T09:57:38.949Z,14.10
2023-02-16T09:58:39.798Z,14.00
2023-02-16T09:59:40.660Z,14.70
2023-02-16T10:00:41.510Z,14.30
2023-02-16T10:01:42.403Z,13.70
2023-02-16T10:02:43.302Z,14.00
2023-02-16T10:03:44.123Z,14.70
2023-02-16T10:04:46.194Z,13.90
2023-02-16T10:05:45.565Z,14.20
2023-02-16T10:06:46.454Z,14.80
2023-02-16T10:07:47.281Z,14.40
2023-02-16T10:08:48.132Z,13.80
2023-02-16T10:09:48.995Z,14.40
2023-02-16T10:10:49.870Z,14.50
2023-02-16T10:11:50.828Z,14.10
2023-02-16T10:12:51.602Z,14.30
2023-02-16T10:13:52.460Z,14.10
2023-02-16T10:14:53.317Z,14.40
2023-02-16T10:15:54.359Z,14.00
2023-02-16T10:16:54.664Z,14.80
2023-02-16T10:17:55.514Z,13.90
2023-02-16T10:18:56.372Z,14.10
2023-02-16T10:19:57.224Z,14.60
2023-02-16T10:20:58.076Z,14.70
2023-02-16T10:21:58.963Z,14.20
2023-02-16T10:22:59.788Z,15.30
2023-02-16T10:24:00.641Z,15.80
2023-02-16T10:25:01.494Z,14.60
2023-02-16T10:26:02.400Z,14.60
2023-02-16T10:27:03.231Z,15.10
2023-02-16T10:28:04.027Z,14.80
2023-02-16T10:29:04.875Z,14.80
2023-02-16T10:30:05.899Z,15.20
2023-02-16T10:31:07.207Z,15.40
2023-02-16T10:32:07.788Z,16.00
2023-02-16T10:33:08.605Z,14.90
2023-02-16T10:34:09.462Z,15.70
2023-02-16T10:35:10.370Z,15.00
2023-02-16T10:36:11.222Z,14.90
2023-02-16T10:37:12.106Z,15.10
2023-02-16T10:38:12.942Z,15.70
2023-02-16T10:39:13.787Z,15.00
2023-02-16T10:40:14.890Z,15.80
2023-02-16T10:41:15.249Z,14.50
2023-02-16T10:42:16.227Z,15.00
2023-02-16T10:43:17.038Z,15.50
2023-02-16T10:44:17.870Z,14.70
2023-02-16T10:45:18.739Z,14.80
2023-02-16T10:46:19.648Z,15.20
2023-02-16T10:47:20.478Z,14.40
2023-02-16T10:48:21.331Z,15.00
2023-02-16T10:49:22.186Z,14.70
2023-02-16T10:50:23.366Z,14.70
2023-02-16T10:51:25.539Z,15.20
2023-02-16T10:52:24.466Z,15.00
2023-02-16T10:53:25.257Z,15.20
2023-02-16T10:54:26.128Z,14.80
2023-02-16T10:55:26.980Z,14.80
2023-02-16T10:56:27.842Z,14.20
2023-02-16T10:57:28.801Z,15.40
2023-02-16T10:58:29.640Z,14.90
2023-02-16T10:59:30.076Z,15.10
2023-02-16T11:00:30.942Z,14.60
2023-02-16T11:01:31.858Z,14.50
2023-02-16T11:02:32.661Z,14.30
2023-02-16T11:03:33.536Z,14.80
2023-02-16T11:04:34.413Z,14.60
2023-02-16T11:05:35.371Z,15.20
2023-02-16T11:06:36.691Z,14.50
2023-02-16T11:07:36.561Z,14.50
2023-02-16T11:08:37.408Z,14.50
2023-02-16T11:09:38.262Z,14.30
2023-02-16T11:10:39.368Z,14.30
2023-02-16T11:11:39.734Z,15.00
2023-02-16T11:12:40.709Z,15.10
2023-02-16T11:13:41.489Z,14.90
2023-02-16T11:14:42.358Z,14.70
2023-02-16T11:15:43.408Z,15.10
2023-02-16T11:16:43.728Z,15.40
2023-02-16T11:17:44.672Z,14.90
2023-02-16T11:18:45.523Z,15.70
2023-02-16T11:19:46.406Z,15.30
2023-02-16T11:20:47.380Z,15.30
2023-02-16T11:21:48.233Z,14.80
2023-02-16T11:22:49.100Z,15.80
2023-02-16T11:23:49.954Z,15.10
2023-02-16T11:24:50.809Z,15.60
2023-02-16T11:25:51.681Z,16.50
2023-02-16T11:26:52.548Z,15.90
2023-02-16T11:27:53.526Z,15.90
2023-02-16T11:28:54.337Z,15.90
2023-02-16T11:29:55.273Z,15.80
2023-02-16T11:30:56.170Z,15.20
2023-02-16T11:31:57.159Z,15.50
2023-02-16T11:32:57.553Z,16.20
2023-02-16T11:33:58.432Z,16.50
2023-02-16T11:34:59.290Z,15.70
2023-02-16T11:36:00.377Z,16.40
2023-02-16T11:37:00.730Z,16.60
2023-02-16T11:38:01.732Z,16.40
2023-02-16T11:39:02.522Z,16.30
2023-02-16T11:40:03.378Z,16.20
2023-02-16T11:41:04.776Z,16.20
2023-02-16T11:42:04.757Z,16.20
2023-02-16T11:43:05.632Z,16.10
2023-02-16T11:44:06.444Z,16.90
2023-02-16T11:45:07.308Z,16.70
2023-02-16T11:46:08.382Z,16.80
2023-02-16T11:47:08.721Z,17.40
2023-02-16T11:48:09.568Z,16.40
2023-02-16T11:49:10.421Z,16.50
2023-02-16T11:50:11.274Z,16.00
2023-02-16T11:51:12.359Z,16.30
2023-02-16T11:52:12.709Z,17.80
2023-02-16T11:53:13.582Z,16.30
2023-02-16T11:54:14.412Z,15.60
2023-02-16T11:55:15.263Z,16.20
2023-02-16T11:56:16.361Z,17.50
2023-02-16T11:57:16.729Z,16.10
2023-02-16T11:58:17.604Z,16.50
2023-02-16T11:59:18.377Z,16.30
2023-02-16T12:00:19.238Z,16.80
2023-02-16T12:01:20.092Z,16.60
2023-02-16T12:02:20.947Z,16.40
2023-02-16T12:03:21.817Z,16.10
2023-02-16T12:04:22.650Z,16.20
2023-02-16T12:05:23.578Z,16.70
2023-02-16T12:06:24.872Z,16.60
2023-02-16T12:07:25.233Z,16.70
2023-02-16T12:08:26.106Z,16.50
2023-02-16T12:09:26.969Z,16.20
2023-02-16T12:10:27.801Z,16.30
2023-02-16T12:11:28.873Z,16.70
2023-02-16T12:12:29.217Z,16.90
2023-02-16T12:13:30.181Z,17.20
2023-02-16T12:14:30.966Z,17.30
2023-02-16T12:15:31.812Z,16.90
2023-02-16T12:16:32.877Z,16.40
2023-02-16T12:17:33.288Z,17.90
2023-02-16T12:18:34.127Z,16.00
2023-02-16T12:19:34.995Z,17.00
2023-02-16T12:20:35.855Z,17.40
2023-02-16T12:21:36.860Z,16.70
2023-02-16T12:22:37.220Z,17.10
2023-02-16T12:23:38.109Z,17.50
2023-02-16T12:24:38.920Z,16.80
2023-02-16T12:25:39.773Z,17.00
2023-02-16T12:26:40.862Z,17.00
2023-02-16T12:27:41.236Z,17.00
2023-02-16T12:28:42.183Z,17.80
2023-02-16T12:29:42.969Z,16.60
2023-02-16T12:30:43.825Z,17.30
2023-02-16T12:31:44.934Z,18.00
2023-02-16T12:32:45.240Z,17.40
2023-02-16T12:33:46.092Z,17.10
2023-02-16T12:34:48.628Z,17.30
2023-02-16T12:35:47.600Z,17.30
2023-02-16T12:36:48.465Z,17.70
2023-02-16T12:37:49.313Z,17.60
2023-02-16T12:38:50.195Z,17.20
2023-02-16T12:39:51.039Z,17.70
2023-02-16T12:40:51.892Z,17.60
2023-02-16T12:41:52.868Z,17.30
2023-02-16T12:42:53.737Z,18.40
2023-02-16T12:43:54.709Z,18.10
2023-02-16T12:44:55.489Z,17.90
2023-02-16T12:45:56.370Z,17.80
2023-02-16T12:46:57.257Z,18.10
2023-02-16T12:47:58.064Z,17.60
2023-02-16T12:48:58.912Z,18.20
2023-02-16T12:49:59.758Z,18.00
2023-02-16T12:51:00.611Z,17.90
2023-02-16T12:52:01.853Z,17.60
2023-02-16T12:53:02.246Z,18.90
2023-02-16T12:54:03.125Z,16.90
2023-02-16T12:55:03.966Z,18.30
2023-02-16T12:56:05.102Z,18.40
2023-02-16T12:57:05.566Z,17.90
2023-02-16T12:58:06.427Z,18.00
2023-02-16T12:59:07.395Z,18.50
2023-02-16T13:00:08.188Z,17.80
2023-02-16T13:01:09.161Z,18.50
2023-02-16T13:02:09.966Z,17.60
2023-02-16T13:03:10.854Z,17.80